sensor_id;sensor_type;location;lat;lon;timestamp;P1;durP1;ratioP1;P2;durP2;ratioP2
56255;SDS011;57229;51.432;-2.598;2022-12-08T00:12:23;15.98;;;9.82;;
56255;SDS011;57229;51.432;-2.598;2022-12-08T00:21:36;14.13;;;9.38;;
56255;SDS011;57229;51.432;-2.598;2022-12-08T00:28:16;13.35;;;9.80;;
56255;SDS011;57229;51.432;-2.598;2022-12-08T00:40:52;14.95;;;9.90;;
56255;SDS011;57229;51.432;-2.598;2022-12-08T00:50:25;11.30;;;8.57;;
56255;SDS011;57229;51.432;-2.598;2022-12-08T00:53:51;14.10;;;9.05;;
56255;SDS011;57229;51.432;-2.598;2022-12-08T00:59:51;10.63;;;8.38;;
56255;SDS011;57229;51.432;-2.598;2022-12-08T01:03:08;15.98;;;9.40;;
56255;SDS011;57229;51.432;-2.598;2022-12-08T01:06:01;12.20;;;8.88;;
56255;SDS011;57229;51.432;-2.598;2022-12-08T01:09:25;13.50;;;8.63;;
56255;SDS011;57229;51.432;-2.598;2022-12-08T01:23:08;10.40;;;8.23;;
56255;SDS011;57229;51.432;-2.598;2022-12-08T01:29:51;10.05;;;7.97;;
56255;SDS011;57229;51.432;-2.598;2022-12-08T01:35:37;10.88;;;8.00;;
56255;SDS011;57229;51.432;-2.598;2022-12-08T01:38:29;10.32;;;7.32;;
56255;SDS011;57229;51.432;-2.598;2022-12-08T01:41:46;8.52;;;7.30;;
56255;SDS011;57229;51.432;-2.598;2022-12-08T02:04:54;10.23;;;7.10;;
56255;SDS011;57229;51.432;-2.598;2022-12-08T02:07:50;9.48;;;7.22;;
56255;SDS011;57229;51.432;-2.598;2022-12-08T02:14:19;10.68;;;7.00;;
56255;SDS011;57229;51.432;-2.598;2022-12-08T02:17:37;9.65;;;7.03;;
56255;SDS011;57229;51.432;-2.598;2022-12-08T02:33:23;9.27;;;6.18;;
56255;SDS011;57229;51.432;-2.598;2022-12-08T02:42:45;9.00;;;6.40;;
56255;SDS011;57229;51.432;-2.598;2022-12-08T02:45:27;9.23;;;6.28;;
56255;SDS011;57229;51.432;-2.598;2022-12-08T02:51:42;6.57;;;5.55;;
56255;SDS011;57229;51.432;-2.598;2022-12-08T02:54:33;9.93;;;5.90;;
56255;SDS011;57229;51.432;-2.598;2022-12-08T03:07:52;7.93;;;6.53;;
56255;SDS011;57229;51.432;-2.598;2022-12-08T03:20:08;8.13;;;6.03;;
56255;SDS011;57229;51.432;-2.598;2022-12-08T03:26:24;7.47;;;6.25;;
56255;SDS011;57229;51.432;-2.598;2022-12-08T03:39:03;8.50;;;6.50;;
56255;SDS011;57229;51.432;-2.598;2022-12-08T03:41:29;11.38;;;6.47;;
56255;SDS011;57229;51.432;-2.598;2022-12-08T03:44:00;10.52;;;5.97;;
56255;SDS011;57229;51.432;-2.598;2022-12-08T03:46:29;9.73;;;6.43;;
56255;SDS011;57229;51.432;-2.598;2022-12-08T03:49:01;8.05;;;6.55;;
56255;SDS011;57229;51.432;-2.598;2022-12-08T03:51:27;8.43;;;6.78;;
56255;SDS011;57229;51.432;-2.598;2022-12-08T03:54:12;11.20;;;7.07;;
56255;SDS011;57229;51.432;-2.598;2022-12-08T03:56:44;8.68;;;6.55;;
56255;SDS011;57229;51.432;-2.598;2022-12-08T03:59:10;14.57;;;6.07;;
56255;SDS011;57229;51.432;-2.598;2022-12-08T04:01:36;9.05;;;6.15;;
56255;SDS011;57229;51.432;-2.598;2022-12-08T04:04:02;7.65;;;5.40;;
56255;SDS011;57229;51.432;-2.598;2022-12-08T04:06:28;8.48;;;6.30;;
56255;SDS011;57229;51.432;-2.598;2022-12-08T04:08:54;10.40;;;5.80;;
56255;SDS011;57229;51.432;-2.598;2022-12-08T04:11:20;9.52;;;6.32;;
56255;SDS011;57229;51.432;-2.598;2022-12-08T04:13:46;8.80;;;6.22;;
56255;SDS011;57229;51.432;-2.598;2022-12-08T04:16:16;9.40;;;6.40;;
56255;SDS011;57229;51.432;-2.598;2022-12-08T04:18:47;10.20;;;6.03;;
56255;SDS011;57229;51.432;-2.598;2022-12-08T04:21:14;8.50;;;6.25;;
56255;SDS011;57229;51.432;-2.598;2022-12-08T04:23:46;7.50;;;6.20;;
56255;SDS011;57229;51.432;-2.598;2022-12-08T04:26:15;10.40;;;6.18;;
56255;SDS011;57229;51.432;-2.598;2022-12-08T04:28:43;8.18;;;6.50;;
56255;SDS011;57229;51.432;-2.598;2022-12-08T04:31:10;9.00;;;6.18;;
56255;SDS011;57229;51.432;-2.598;2022-12-08T04:33:35;9.82;;;6.60;;
56255;SDS011;57229;51.432;-2.598;2022-12-08T04:36:04;7.72;;;6.15;;
56255;SDS011;57229;51.432;-2.598;2022-12-08T04:38:42;9.38;;;6.80;;
56255;SDS011;57229;51.432;-2.598;2022-12-08T04:41:08;8.90;;;6.68;;
56255;SDS011;57229;51.432;-2.598;2022-12-08T04:43:34;9.45;;;6.28;;
56255;SDS011;57229;51.432;-2.598;2022-12-08T04:46:01;9.52;;;6.38;;
56255;SDS011;57229;51.432;-2.598;2022-12-08T04:48:31;9.43;;;6.80;;
56255;SDS011;57229;51.432;-2.598;2022-12-08T04:50:56;7.43;;;6.00;;
56255;SDS011;57229;51.432;-2.598;2022-12-08T04:53:22;7.53;;;6.13;;
56255;SDS011;57229;51.432;-2.598;2022-12-08T04:55:50;12.10;;;6.00;;
56255;SDS011;57229;51.432;-2.598;2022-12-08T04:58:17;9.20;;;6.38;;
56255;SDS011;57229;51.432;-2.598;2022-12-08T05:00:44;7.25;;;6.18;;
56255;SDS011;57229;51.432;-2.598;2022-12-08T05:03:10;8.30;;;6.50;;
56255;SDS011;57229;51.432;-2.598;2022-12-08T05:05:37;8.27;;;6.20;;
56255;SDS011;57229;51.432;-2.598;2022-12-08T05:08:03;9.98;;;6.70;;
56255;SDS011;57229;51.432;-2.598;2022-12-08T05:10:29;9.27;;;6.00;;
56255;SDS011;57229;51.432;-2.598;2022-12-08T05:12:56;9.07;;;6.78;;
56255;SDS011;57229;51.432;-2.598;2022-12-08T05:15:23;8.68;;;6.63;;
56255;SDS011;57229;51.432;-2.598;2022-12-08T05:17:49;7.53;;;6.30;;
56255;SDS011;57229;51.432;-2.598;2022-12-08T05:20:15;8.32;;;6.80;;
56255;SDS011;57229;51.432;-2.598;2022-12-08T05:22:41;8.43;;;6.80;;
56255;SDS011;57229;51.432;-2.598;2022-12-08T05:25:07;12.25;;;7.28;;
56255;SDS011;57229;51.432;-2.598;2022-12-08T05:27:33;10.55;;;6.78;;
56255;SDS011;57229;51.432;-2.598;2022-12-08T05:29:59;9.20;;;6.82;;
56255;SDS011;57229;51.432;-2.598;2022-12-08T05:32:27;7.53;;;6.40;;
56255;SDS011;57229;51.432;-2.598;2022-12-08T05:34:53;8.77;;;6.75;;
56255;SDS011;57229;51.432;-2.598;2022-12-08T05:37:19;9.32;;;6.53;;
56255;SDS011;57229;51.432;-2.598;2022-12-08T05:39:47;10.85;;;7.10;;
56255;SDS011;57229;51.432;-2.598;2022-12-08T05:42:13;9.40;;;6.82;;
56255;SDS011;57229;51.432;-2.598;2022-12-08T05:44:39;8.77;;;6.57;;
56255;SDS011;57229;51.432;-2.598;2022-12-08T05:47:05;11.80;;;7.28;;
56255;SDS011;57229;51.432;-2.598;2022-12-08T05:49:31;9.15;;;6.80;;
56255;SDS011;57229;51.432;-2.598;2022-12-08T05:51:56;8.30;;;6.72;;
56255;SDS011;57229;51.432;-2.598;2022-12-08T05:54:25;9.05;;;7.00;;
56255;SDS011;57229;51.432;-2.598;2022-12-08T05:56:51;10.27;;;7.18;;
56255;SDS011;57229;51.432;-2.598;2022-12-08T05:59:16;9.20;;;7.05;;
56255;SDS011;57229;51.432;-2.598;2022-12-08T06:01:42;10.55;;;7.13;;
56255;SDS011;57229;51.432;-2.598;2022-12-08T06:04:09;9.27;;;6.80;;
56255;SDS011;57229;51.432;-2.598;2022-12-08T06:06:34;10.00;;;7.05;;
56255;SDS011;57229;51.432;-2.598;2022-12-08T06:09:01;11.30;;;7.60;;
56255;SDS011;57229;51.432;-2.598;2022-12-08T06:11:28;9.32;;;6.88;;
56255;SDS011;57229;51.432;-2.598;2022-12-08T06:13:58;9.10;;;7.30;;
56255;SDS011;57229;51.432;-2.598;2022-12-08T06:16:24;8.98;;;7.10;;
56255;SDS011;57229;51.432;-2.598;2022-12-08T06:18:51;9.35;;;7.60;;
56255;SDS011;57229;51.432;-2.598;2022-12-08T06:21:17;9.90;;;7.18;;
56255;SDS011;57229;51.432;-2.598;2022-12-08T06:23:46;10.63;;;6.97;;
56255;SDS011;57229;51.432;-2.598;2022-12-08T06:26:13;9.15;;;7.20;;
56255;SDS011;57229;51.432;-2.598;2022-12-08T06:28:43;10.50;;;7.55;;
56255;SDS011;57229;51.432;-2.598;2022-12-08T06:31:19;11.68;;;7.78;;
56255;SDS011;57229;51.432;-2.598;2022-12-08T06:33:48;9.20;;;7.35;;
56255;SDS011;57229;51.432;-2.598;2022-12-08T06:36:15;10.60;;;7.75;;
56255;SDS011;57229;51.432;-2.598;2022-12-08T06:38:44;12.20;;;8.65;;
56255;SDS011;57229;51.432;-2.598;2022-12-08T06:41:16;9.13;;;6.88;;
56255;SDS011;57229;51.432;-2.598;2022-12-08T06:43:42;11.88;;;7.70;;
56255;SDS011;57229;51.432;-2.598;2022-12-08T06:46:12;9.73;;;7.43;;
56255;SDS011;57229;51.432;-2.598;2022-12-08T06:54:46;9.77;;;7.53;;
56255;SDS011;57229;51.432;-2.598;2022-12-08T06:57:12;10.30;;;7.28;;
56255;SDS011;57229;51.432;-2.598;2022-12-08T06:59:42;10.20;;;7.72;;
56255;SDS011;57229;51.432;-2.598;2022-12-08T07:02:08;9.98;;;7.35;;
56255;SDS011;57229;51.432;-2.598;2022-12-08T07:04:34;10.57;;;7.80;;
56255;SDS011;57229;51.432;-2.598;2022-12-08T07:07:00;10.30;;;7.45;;
56255;SDS011;57229;51.432;-2.598;2022-12-08T07:09:29;10.20;;;6.82;;
56255;SDS011;57229;51.432;-2.598;2022-12-08T07:11:55;8.95;;;7.22;;
56255;SDS011;57229;51.432;-2.598;2022-12-08T07:14:24;12.27;;;7.82;;
56255;SDS011;57229;51.432;-2.598;2022-12-08T07:16:50;12.50;;;7.53;;
56255;SDS011;57229;51.432;-2.598;2022-12-08T07:19:16;11.07;;;7.50;;
56255;SDS011;57229;51.432;-2.598;2022-12-08T07:21:42;11.48;;;7.93;;
56255;SDS011;57229;51.432;-2.598;2022-12-08T07:24:14;8.68;;;7.43;;
56255;SDS011;57229;51.432;-2.598;2022-12-08T07:26:43;9.32;;;7.43;;
56255;SDS011;57229;51.432;-2.598;2022-12-08T07:29:09;10.43;;;7.57;;
56255;SDS011;57229;51.432;-2.598;2022-12-08T07:31:35;9.55;;;6.85;;
56255;SDS011;57229;51.432;-2.598;2022-12-08T07:34:01;10.23;;;7.05;;
56255;SDS011;57229;51.432;-2.598;2022-12-08T07:36:31;10.50;;;7.00;;
56255;SDS011;57229;51.432;-2.598;2022-12-08T07:38:59;9.25;;;6.95;;
56255;SDS011;57229;51.432;-2.598;2022-12-08T07:41:28;9.77;;;7.07;;
56255;SDS011;57229;51.432;-2.598;2022-12-08T07:43:57;9.32;;;7.00;;
56255;SDS011;57229;51.432;-2.598;2022-12-08T07:46:23;9.60;;;7.20;;
56255;SDS011;57229;51.432;-2.598;2022-12-08T07:48:50;10.43;;;7.05;;
56255;SDS011;57229;51.432;-2.598;2022-12-08T07:51:17;12.25;;;6.90;;
56255;SDS011;57229;51.432;-2.598;2022-12-08T07:53:46;10.18;;;7.05;;
56255;SDS011;57229;51.432;-2.598;2022-12-08T07:56:27;12.52;;;7.25;;
56255;SDS011;57229;51.432;-2.598;2022-12-08T07:59:27;10.20;;;6.90;;
56255;SDS011;57229;51.432;-2.598;2022-12-08T08:02:03;9.65;;;6.72;;
56255;SDS011;57229;51.432;-2.598;2022-12-08T08:07:14;15.82;;;6.60;;
56255;SDS011;57229;51.432;-2.598;2022-12-08T08:09:43;11.32;;;6.68;;
56255;SDS011;57229;51.432;-2.598;2022-12-08T08:12:11;10.85;;;6.75;;
56255;SDS011;57229;51.432;-2.598;2022-12-08T08:14:37;10.13;;;6.68;;
56255;SDS011;57229;51.432;-2.598;2022-12-08T08:17:04;10.13;;;6.82;;
56255;SDS011;57229;51.432;-2.598;2022-12-08T08:19:30;8.32;;;6.55;;
56255;SDS011;57229;51.432;-2.598;2022-12-08T08:21:56;8.40;;;6.38;;
56255;SDS011;57229;51.432;-2.598;2022-12-08T08:24:22;8.63;;;6.47;;
56255;SDS011;57229;51.432;-2.598;2022-12-08T08:26:48;11.13;;;6.90;;
56255;SDS011;57229;51.432;-2.598;2022-12-08T08:29:14;8.85;;;6.57;;
56255;SDS011;57229;51.432;-2.598;2022-12-08T08:31:40;9.57;;;6.75;;
56255;SDS011;57229;51.432;-2.598;2022-12-08T08:34:11;9.75;;;6.97;;
56255;SDS011;57229;51.432;-2.598;2022-12-08T08:36:37;9.45;;;6.85;;
56255;SDS011;57229;51.432;-2.598;2022-12-08T08:39:03;8.93;;;6.30;;
56255;SDS011;57229;51.432;-2.598;2022-12-08T08:41:32;9.68;;;6.90;;
56255;SDS011;57229;51.432;-2.598;2022-12-08T08:43:59;8.77;;;6.57;;
56255;SDS011;57229;51.432;-2.598;2022-12-08T08:46:28;11.38;;;7.13;;
56255;SDS011;57229;51.432;-2.598;2022-12-08T08:48:54;11.38;;;7.18;;
56255;SDS011;57229;51.432;-2.598;2022-12-08T08:51:23;10.30;;;6.55;;
56255;SDS011;57229;51.432;-2.598;2022-12-08T08:53:49;9.85;;;6.72;;
56255;SDS011;57229;51.432;-2.598;2022-12-08T08:56:16;11.38;;;7.18;;
56255;SDS011;57229;51.432;-2.598;2022-12-08T08:58:48;10.18;;;7.20;;
56255;SDS011;57229;51.432;-2.598;2022-12-08T09:01:19;10.00;;;6.97;;
56255;SDS011;57229;51.432;-2.598;2022-12-08T09:03:50;12.43;;;6.72;;
56255;SDS011;57229;51.432;-2.598;2022-12-08T09:06:16;15.02;;;7.25;;
56255;SDS011;57229;51.432;-2.598;2022-12-08T09:08:48;8.60;;;6.95;;
56255;SDS011;57229;51.432;-2.598;2022-12-08T09:11:27;9.48;;;6.97;;
56255;SDS011;57229;51.432;-2.598;2022-12-08T09:13:53;11.60;;;7.20;;
56255;SDS011;57229;51.432;-2.598;2022-12-08T09:16:24;10.40;;;7.20;;
56255;SDS011;57229;51.432;-2.598;2022-12-08T09:18:50;13.80;;;7.45;;
56255;SDS011;57229;51.432;-2.598;2022-12-08T09:21:20;17.90;;;7.68;;
56255;SDS011;57229;51.432;-2.598;2022-12-08T09:23:51;11.43;;;7.22;;
56255;SDS011;57229;51.432;-2.598;2022-12-08T09:26:19;13.75;;;8.00;;
56255;SDS011;57229;51.432;-2.598;2022-12-08T09:28:49;20.95;;;7.88;;
56255;SDS011;57229;51.432;-2.598;2022-12-08T09:31:16;20.58;;;8.35;;
56255;SDS011;57229;51.432;-2.598;2022-12-08T09:33:43;18.77;;;8.38;;
56255;SDS011;57229;51.432;-2.598;2022-12-08T09:36:17;32.60;;;8.45;;
56255;SDS011;57229;51.432;-2.598;2022-12-08T09:38:43;21.02;;;8.55;;
56255;SDS011;57229;51.432;-2.598;2022-12-08T09:41:15;24.73;;;9.32;;
56255;SDS011;57229;51.432;-2.598;2022-12-08T09:46:32;41.17;;;9.63;;
56255;SDS011;57229;51.432;-2.598;2022-12-08T09:48:59;40.83;;;10.45;;
56255;SDS011;57229;51.432;-2.598;2022-12-08T09:51:29;46.33;;;9.88;;
56255;SDS011;57229;51.432;-2.598;2022-12-08T09:54:02;46.08;;;10.55;;
56255;SDS011;57229;51.432;-2.598;2022-12-08T09:56:41;41.05;;;10.32;;
56255;SDS011;57229;51.432;-2.598;2022-12-08T10:01:34;46.60;;;10.90;;
56255;SDS011;57229;51.432;-2.598;2022-12-08T10:04:11;49.15;;;10.35;;
56255;SDS011;57229;51.432;-2.598;2022-12-08T10:15:30;38.10;;;10.55;;
56255;SDS011;57229;51.432;-2.598;2022-12-08T10:18:02;36.20;;;10.25;;
56255;SDS011;57229;51.432;-2.598;2022-12-08T10:20:39;26.40;;;9.27;;
56255;SDS011;57229;51.432;-2.598;2022-12-08T10:23:07;31.27;;;9.43;;
56255;SDS011;57229;51.432;-2.598;2022-12-08T10:26:07;27.77;;;9.75;;
56255;SDS011;57229;51.432;-2.598;2022-12-08T10:28:40;31.05;;;9.75;;
56255;SDS011;57229;51.432;-2.598;2022-12-08T10:31:17;27.58;;;9.70;;
56255;SDS011;57229;51.432;-2.598;2022-12-08T10:33:44;26.00;;;9.82;;
56255;SDS011;57229;51.432;-2.598;2022-12-08T10:36:12;24.63;;;10.65;;
56255;SDS011;57229;51.432;-2.598;2022-12-08T10:38:38;24.65;;;8.93;;
56255;SDS011;57229;51.432;-2.598;2022-12-08T10:43:51;21.58;;;9.07;;
56255;SDS011;57229;51.432;-2.598;2022-12-08T10:46:34;24.88;;;9.45;;
56255;SDS011;57229;51.432;-2.598;2022-12-08T10:49:20;27.08;;;9.60;;
56255;SDS011;57229;51.432;-2.598;2022-12-08T10:52:02;18.08;;;9.52;;
56255;SDS011;57229;51.432;-2.598;2022-12-08T10:57:20;29.88;;;9.95;;
56255;SDS011;57229;51.432;-2.598;2022-12-08T10:59:58;25.05;;;9.48;;
56255;SDS011;57229;51.432;-2.598;2022-12-08T11:02:52;18.73;;;9.60;;
56255;SDS011;57229;51.432;-2.598;2022-12-08T11:06:08;24.27;;;9.20;;
56255;SDS011;57229;51.432;-2.598;2022-12-08T11:08:59;22.23;;;9.38;;
56255;SDS011;57229;51.432;-2.598;2022-12-08T11:11:57;17.85;;;9.13;;
56255;SDS011;57229;51.432;-2.598;2022-12-08T11:17:04;20.10;;;9.65;;
56255;SDS011;57229;51.432;-2.598;2022-12-08T11:19:38;19.20;;;10.02;;
56255;SDS011;57229;51.432;-2.598;2022-12-08T11:27:46;22.55;;;8.90;;
56255;SDS011;57229;51.432;-2.598;2022-12-08T11:32:41;17.75;;;9.55;;
56255;SDS011;57229;51.432;-2.598;2022-12-08T11:35:31;15.85;;;9.38;;
56255;SDS011;57229;51.432;-2.598;2022-12-08T11:38:31;18.90;;;9.20;;
56255;SDS011;57229;51.432;-2.598;2022-12-08T11:40:55;14.02;;;9.23;;
56255;SDS011;57229;51.432;-2.598;2022-12-08T11:46:07;15.60;;;8.57;;
56255;SDS011;57229;51.432;-2.598;2022-12-08T11:51:32;17.70;;;9.23;;
56255;SDS011;57229;51.432;-2.598;2022-12-08T11:56:35;13.35;;;8.45;;
56255;SDS011;57229;51.432;-2.598;2022-12-08T11:59:49;13.52;;;7.82;;
56255;SDS011;57229;51.432;-2.598;2022-12-08T12:01:49;12.15;;;8.32;;
56255;SDS011;57229;51.432;-2.598;2022-12-08T12:04:17;20.10;;;8.55;;
56255;SDS011;57229;51.432;-2.598;2022-12-08T12:07:03;15.63;;;8.45;;
56255;SDS011;57229;51.432;-2.598;2022-12-08T12:21:25;12.18;;;7.80;;
56255;SDS011;57229;51.432;-2.598;2022-12-08T12:23:59;15.32;;;7.97;;
56255;SDS011;57229;51.432;-2.598;2022-12-08T12:26:56;13.77;;;8.23;;
56255;SDS011;57229;51.432;-2.598;2022-12-08T12:29:26;15.70;;;8.15;;
56255;SDS011;57229;51.432;-2.598;2022-12-08T12:32:16;11.38;;;7.72;;
56255;SDS011;57229;51.432;-2.598;2022-12-08T12:37:25;11.32;;;7.25;;
56255;SDS011;57229;51.432;-2.598;2022-12-08T12:40:01;12.13;;;7.45;;
56255;SDS011;57229;51.432;-2.598;2022-12-08T12:42:38;13.35;;;7.22;;
56255;SDS011;57229;51.432;-2.598;2022-12-08T12:47:43;16.35;;;7.80;;
56255;SDS011;57229;51.432;-2.598;2022-12-08T12:53:03;21.25;;;7.15;;
56255;SDS011;57229;51.432;-2.598;2022-12-08T12:55:52;15.48;;;7.38;;
56255;SDS011;57229;51.432;-2.598;2022-12-08T13:03:47;13.95;;;6.78;;
56255;SDS011;57229;51.432;-2.598;2022-12-08T13:06:22;12.70;;;5.90;;
56255;SDS011;57229;51.432;-2.598;2022-12-08T13:08:57;14.98;;;6.57;;
56255;SDS011;57229;51.432;-2.598;2022-12-08T13:11:23;8.40;;;6.18;;
56255;SDS011;57229;51.432;-2.598;2022-12-08T13:14:00;14.52;;;6.20;;
56255;SDS011;57229;51.432;-2.598;2022-12-08T13:16:30;10.98;;;6.15;;
56255;SDS011;57229;51.432;-2.598;2022-12-08T13:18:59;13.18;;;5.95;;
56255;SDS011;57229;51.432;-2.598;2022-12-08T13:21:35;10.25;;;5.80;;
56255;SDS011;57229;51.432;-2.598;2022-12-08T13:26:50;12.82;;;5.88;;
56255;SDS011;57229;51.432;-2.598;2022-12-08T13:29:35;10.75;;;5.53;;
56255;SDS011;57229;51.432;-2.598;2022-12-08T13:32:03;11.68;;;6.00;;
56255;SDS011;57229;51.432;-2.598;2022-12-08T13:34:50;13.13;;;5.63;;
56255;SDS011;57229;51.432;-2.598;2022-12-08T13:40:15;9.38;;;6.15;;
56255;SDS011;57229;51.432;-2.598;2022-12-08T13:43:08;11.82;;;6.40;;
56255;SDS011;57229;51.432;-2.598;2022-12-08T13:45:43;12.40;;;5.55;;
56255;SDS011;57229;51.432;-2.598;2022-12-08T13:48:17;10.80;;;5.53;;
56255;SDS011;57229;51.432;-2.598;2022-12-08T13:50:54;14.82;;;5.03;;
56255;SDS011;57229;51.432;-2.598;2022-12-08T13:53:29;11.80;;;5.82;;
56255;SDS011;57229;51.432;-2.598;2022-12-08T13:56:02;10.60;;;5.25;;
56255;SDS011;57229;51.432;-2.598;2022-12-08T13:58:30;8.52;;;4.85;;
56255;SDS011;57229;51.432;-2.598;2022-12-08T14:03:46;6.55;;;4.78;;
56255;SDS011;57229;51.432;-2.598;2022-12-08T14:06:14;7.03;;;5.15;;
56255;SDS011;57229;51.432;-2.598;2022-12-08T14:08:41;8.88;;;4.90;;
56255;SDS011;57229;51.432;-2.598;2022-12-08T14:11:10;8.85;;;4.63;;
56255;SDS011;57229;51.432;-2.598;2022-12-08T14:13:58;7.78;;;4.70;;
56255;SDS011;57229;51.432;-2.598;2022-12-08T14:16:27;6.97;;;4.53;;
56255;SDS011;57229;51.432;-2.598;2022-12-08T14:19:04;6.65;;;4.18;;
56255;SDS011;57229;51.432;-2.598;2022-12-08T14:21:34;11.60;;;4.93;;
56255;SDS011;57229;51.432;-2.598;2022-12-08T14:24:01;8.30;;;4.40;;
56255;SDS011;57229;51.432;-2.598;2022-12-08T14:26:29;7.72;;;4.65;;
56255;SDS011;57229;51.432;-2.598;2022-12-08T14:28:58;5.50;;;4.50;;
56255;SDS011;57229;51.432;-2.598;2022-12-08T14:31:24;10.73;;;4.90;;
56255;SDS011;57229;51.432;-2.598;2022-12-08T14:33:52;7.70;;;4.55;;
56255;SDS011;57229;51.432;-2.598;2022-12-08T14:36:18;11.27;;;4.60;;
56255;SDS011;57229;51.432;-2.598;2022-12-08T14:38:45;8.30;;;4.40;;
56255;SDS011;57229;51.432;-2.598;2022-12-08T14:41:12;7.60;;;4.70;;
56255;SDS011;57229;51.432;-2.598;2022-12-08T14:43:38;4.75;;;4.20;;
56255;SDS011;57229;51.432;-2.598;2022-12-08T14:46:18;5.70;;;4.22;;
56255;SDS011;57229;51.432;-2.598;2022-12-08T14:48:45;5.13;;;4.03;;
56255;SDS011;57229;51.432;-2.598;2022-12-08T14:59:13;6.00;;;4.15;;
56255;SDS011;57229;51.432;-2.598;2022-12-08T15:02:08;5.43;;;4.40;;
56255;SDS011;57229;51.432;-2.598;2022-12-08T15:04:43;5.72;;;4.25;;
56255;SDS011;57229;51.432;-2.598;2022-12-08T15:09:37;6.97;;;4.55;;
56255;SDS011;57229;51.432;-2.598;2022-12-08T15:17:28;8.02;;;4.00;;
56255;SDS011;57229;51.432;-2.598;2022-12-08T15:20:23;12.20;;;4.22;;
56255;SDS011;57229;51.432;-2.598;2022-12-08T15:22:49;7.25;;;4.13;;
56255;SDS011;57229;51.432;-2.598;2022-12-08T15:25:15;5.18;;;4.50;;
56255;SDS011;57229;51.432;-2.598;2022-12-08T15:27:41;7.65;;;4.50;;
56255;SDS011;57229;51.432;-2.598;2022-12-08T15:30:14;5.05;;;4.38;;
56255;SDS011;57229;51.432;-2.598;2022-12-08T15:32:41;5.38;;;4.00;;
56255;SDS011;57229;51.432;-2.598;2022-12-08T15:35:11;5.50;;;3.85;;
56255;SDS011;57229;51.432;-2.598;2022-12-08T15:37:40;4.88;;;4.13;;
56255;SDS011;57229;51.432;-2.598;2022-12-08T15:40:06;6.75;;;4.10;;
56255;SDS011;57229;51.432;-2.598;2022-12-08T15:42:39;7.57;;;4.18;;
56255;SDS011;57229;51.432;-2.598;2022-12-08T15:45:05;8.10;;;4.00;;
56255;SDS011;57229;51.432;-2.598;2022-12-08T15:47:31;9.73;;;4.00;;
56255;SDS011;57229;51.432;-2.598;2022-12-08T15:49:58;6.15;;;4.25;;
56255;SDS011;57229;51.432;-2.598;2022-12-08T15:52:24;8.35;;;4.63;;
56255;SDS011;57229;51.432;-2.598;2022-12-08T15:54:49;5.82;;;4.10;;
56255;SDS011;57229;51.432;-2.598;2022-12-08T15:57:22;7.18;;;3.92;;
56255;SDS011;57229;51.432;-2.598;2022-12-08T15:59:51;7.80;;;4.00;;
56255;SDS011;57229;51.432;-2.598;2022-12-08T16:02:17;7.78;;;4.35;;
56255;SDS011;57229;51.432;-2.598;2022-12-08T16:04:43;7.35;;;3.80;;
56255;SDS011;57229;51.432;-2.598;2022-12-08T16:07:28;6.65;;;3.72;;
56255;SDS011;57229;51.432;-2.598;2022-12-08T16:09:55;5.43;;;4.00;;
56255;SDS011;57229;51.432;-2.598;2022-12-08T16:12:22;6.35;;;3.92;;
56255;SDS011;57229;51.432;-2.598;2022-12-08T16:15:09;5.25;;;3.90;;
56255;SDS011;57229;51.432;-2.598;2022-12-08T16:17:36;18.38;;;4.72;;
56255;SDS011;57229;51.432;-2.598;2022-12-08T16:20:03;10.07;;;4.38;;
56255;SDS011;57229;51.432;-2.598;2022-12-08T16:22:31;7.03;;;4.10;;
56255;SDS011;57229;51.432;-2.598;2022-12-08T16:24:57;4.90;;;3.90;;
56255;SDS011;57229;51.432;-2.598;2022-12-08T16:27:23;8.30;;;4.05;;
56255;SDS011;57229;51.432;-2.598;2022-12-08T16:29:57;8.98;;;4.30;;
56255;SDS011;57229;51.432;-2.598;2022-12-08T16:32:24;11.70;;;4.72;;
56255;SDS011;57229;51.432;-2.598;2022-12-08T16:34:51;11.32;;;4.32;;
56255;SDS011;57229;51.432;-2.598;2022-12-08T16:37:21;14.77;;;4.63;;
56255;SDS011;57229;51.432;-2.598;2022-12-08T16:39:49;7.55;;;4.38;;
56255;SDS011;57229;51.432;-2.598;2022-12-08T16:42:17;22.17;;;5.75;;
56255;SDS011;57229;51.432;-2.598;2022-12-08T16:45:04;30.27;;;5.70;;
56255;SDS011;57229;51.432;-2.598;2022-12-08T16:47:30;20.80;;;5.78;;
56255;SDS011;57229;51.432;-2.598;2022-12-08T16:49:59;18.75;;;5.45;;
56255;SDS011;57229;51.432;-2.598;2022-12-08T16:52:27;27.83;;;7.07;;
56255;SDS011;57229;51.432;-2.598;2022-12-08T16:54:53;27.42;;;5.35;;
56255;SDS011;57229;51.432;-2.598;2022-12-08T16:57:19;22.42;;;5.88;;
56255;SDS011;57229;51.432;-2.598;2022-12-08T16:59:44;14.93;;;5.20;;
56255;SDS011;57229;51.432;-2.598;2022-12-08T17:02:10;19.63;;;4.78;;
56255;SDS011;57229;51.432;-2.598;2022-12-08T17:04:36;18.65;;;5.30;;
56255;SDS011;57229;51.432;-2.598;2022-12-08T17:07:01;22.95;;;5.57;;
56255;SDS011;57229;51.432;-2.598;2022-12-08T17:09:29;13.77;;;5.50;;
56255;SDS011;57229;51.432;-2.598;2022-12-08T17:12:36;18.48;;;6.47;;
56255;SDS011;57229;51.432;-2.598;2022-12-08T17:15:16;12.68;;;5.93;;
56255;SDS011;57229;51.432;-2.598;2022-12-08T17:18:39;22.13;;;5.57;;
56255;SDS011;57229;51.432;-2.598;2022-12-08T17:21:35;21.85;;;5.88;;
56255;SDS011;57229;51.432;-2.598;2022-12-08T17:24:01;15.80;;;5.50;;
56255;SDS011;57229;51.432;-2.598;2022-12-08T17:26:26;15.18;;;5.72;;
56255;SDS011;57229;51.432;-2.598;2022-12-08T17:28:52;15.05;;;5.00;;
56255;SDS011;57229;51.432;-2.598;2022-12-08T17:31:18;18.35;;;5.65;;
56255;SDS011;57229;51.432;-2.598;2022-12-08T17:33:44;14.65;;;5.43;;
56255;SDS011;57229;51.432;-2.598;2022-12-08T17:36:14;13.95;;;5.78;;
56255;SDS011;57229;51.432;-2.598;2022-12-08T17:38:53;21.70;;;5.57;;
56255;SDS011;57229;51.432;-2.598;2022-12-08T17:42:04;15.50;;;5.57;;
56255;SDS011;57229;51.432;-2.598;2022-12-08T17:44:30;9.15;;;5.18;;
56255;SDS011;57229;51.432;-2.598;2022-12-08T17:46:57;14.98;;;6.18;;
56255;SDS011;57229;51.432;-2.598;2022-12-08T17:49:24;17.40;;;5.80;;
56255;SDS011;57229;51.432;-2.598;2022-12-08T17:51:52;15.10;;;5.10;;
56255;SDS011;57229;51.432;-2.598;2022-12-08T17:54:20;16.10;;;5.07;;
56255;SDS011;57229;51.432;-2.598;2022-12-08T17:56:55;12.73;;;5.22;;
56255;SDS011;57229;51.432;-2.598;2022-12-08T17:59:27;13.60;;;5.00;;
56255;SDS011;57229;51.432;-2.598;2022-12-08T18:01:54;13.02;;;5.30;;
56255;SDS011;57229;51.432;-2.598;2022-12-08T18:04:21;13.73;;;5.13;;
56255;SDS011;57229;51.432;-2.598;2022-12-08T18:06:47;9.43;;;5.28;;
56255;SDS011;57229;51.432;-2.598;2022-12-08T18:09:13;12.40;;;5.03;;
56255;SDS011;57229;51.432;-2.598;2022-12-08T18:11:39;14.73;;;5.57;;
56255;SDS011;57229;51.432;-2.598;2022-12-08T18:14:06;13.93;;;5.28;;
56255;SDS011;57229;51.432;-2.598;2022-12-08T18:16:37;17.15;;;5.63;;
56255;SDS011;57229;51.432;-2.598;2022-12-08T18:19:05;10.80;;;5.32;;
56255;SDS011;57229;51.432;-2.598;2022-12-08T18:21:31;13.02;;;6.97;;
56255;SDS011;57229;51.432;-2.598;2022-12-08T18:23:57;16.73;;;6.25;;
56255;SDS011;57229;51.432;-2.598;2022-12-08T18:26:23;18.10;;;5.50;;
56255;SDS011;57229;51.432;-2.598;2022-12-08T18:28:49;7.70;;;5.10;;
56255;SDS011;57229;51.432;-2.598;2022-12-08T18:31:16;20.38;;;6.40;;
56255;SDS011;57229;51.432;-2.598;2022-12-08T18:33:45;12.52;;;5.90;;
56255;SDS011;57229;51.432;-2.598;2022-12-08T18:36:16;14.20;;;5.82;;
56255;SDS011;57229;51.432;-2.598;2022-12-08T18:38:43;15.13;;;6.05;;
56255;SDS011;57229;51.432;-2.598;2022-12-08T18:41:10;11.90;;;6.38;;
56255;SDS011;57229;51.432;-2.598;2022-12-08T18:43:38;13.82;;;6.68;;
56255;SDS011;57229;51.432;-2.598;2022-12-08T18:46:05;15.10;;;7.40;;
56255;SDS011;57229;51.432;-2.598;2022-12-08T18:48:37;13.98;;;8.57;;
56255;SDS011;57229;51.432;-2.598;2022-12-08T18:51:08;13.48;;;8.85;;
56255;SDS011;57229;51.432;-2.598;2022-12-08T18:53:37;11.43;;;9.02;;